createdAt,value
2016-04-15T00:00:48.566Z,21.82
2016-04-15T00:01:48.585Z,21.92
2016-04-15T00:02:48.571Z,22.02
2016-04-15T00:03:48.590Z,21.82
2016-04-15T00:04:48.593Z,21.62
2016-04-15T00:05:48.595Z,22.02
2016-04-15T00:06:48.598Z,22.11
2016-04-15T00:07:48.617Z,22.02
2016-04-15T00:08:48.619Z,21.82
2016-04-15T00:09:48.622Z,22.11
2016-04-15T00:10:48.625Z,21.92
2016-04-15T00:11:48.643Z,21.92
2016-04-15T00:12:48.631Z,22.02
2016-04-15T00:13:48.648Z,22.02
2016-04-15T00:14:48.667Z,22.11
2016-04-15T00:15:48.669Z,22.4
2016-04-15T00:16:48.672Z,21.92
2016-04-15T00:17:48.675Z,22.02
2016-04-15T00:18:48.677Z,22.02
2016-04-15T00:19:48.680Z,22.11
2016-04-15T00:20:48.697Z,22.02
2016-04-15T00:21:48.685Z,22.02
2016-04-15T00:22:48.719Z,21.92
2016-04-15T00:23:48.705Z,22.11
2016-04-15T00:24:48.724Z,22.02
2016-04-15T00:25:48.727Z,22.02
2016-04-15T00:26:48.730Z,22.02
2016-04-15T00:27:48.733Z,22.11
2016-04-15T00:28:48.735Z,21.92
2016-04-15T00:29:48.769Z,22.11
2016-04-15T00:30:48.756Z,22.02
2016-04-15T00:31:48.759Z,22.11
2016-04-15T00:32:48.763Z,22.11
2016-04-15T00:33:48.766Z,22.11
2016-04-15T00:34:48.768Z,21.92
2016-04-15T00:35:48.778Z,22.02
2016-04-15T00:36:48.780Z,22.11
2016-04-15T00:37:48.799Z,22.3
2016-04-15T00:38:48.801Z,22.11
2016-04-15T00:39:48.820Z,22.2
2016-04-15T00:40:48.823Z,22.2
2016-04-15T00:41:48.840Z,22.11
2016-04-15T00:42:48.828Z,22.02
2016-04-15T00:43:48.845Z,22.02
2016-04-15T00:44:48.926Z,22.02
2016-04-15T00:45:48.867Z,22.11
2016-04-15T00:46:48.854Z,21.92
2016-04-15T00:47:48.857Z,21.92
2016-04-15T00:48:48.860Z,22.11
2016-04-15T00:49:48.862Z,22.02
2016-04-15T00:50:48.865Z,22.02
2016-04-15T00:51:48.868Z,22.11
2016-04-15T00:52:48.886Z,22.02
2016-04-15T00:53:48.889Z,22.3
2016-04-15T00:54:48.907Z,22.11
2016-04-15T00:55:48.910Z,22.3
2016-04-15T00:56:48.912Z,22.11
2016-04-15T00:57:48.915Z,22.11
2016-04-15T00:58:48.918Z,22.3
2016-04-15T00:59:48.920Z,21.92
2016-04-15T01:00:48.923Z,21.82
2016-04-15T01:01:48.926Z,21.92
2016-04-15T01:02:48.944Z,22.02
2016-04-15T01:03:48.947Z,21.92
2016-04-15T01:04:48.965Z,22.02
2016-04-15T01:05:48.952Z,22.02
2016-04-15T01:06:48.970Z,22.02
2016-04-15T01:07:48.988Z,22.02
2016-04-15T01:08:48.976Z,21.92
2016-04-15T01:09:48.994Z,21.92
2016-04-15T01:10:48.981Z,21.92
2016-04-15T01:11:48.999Z,22.02
2016-04-15T01:12:49.001Z,21.92
2016-04-15T01:13:49.004Z,21.92
2016-04-15T01:14:49.007Z,22.02
2016-04-15T01:15:49.009Z,21.92
2016-04-15T01:16:49.029Z,21.92
2016-04-15T01:17:49.031Z,21.92
2016-04-15T01:18:49.050Z,21.92
2016-04-15T01:19:49.053Z,21.92
2016-04-15T01:20:49.055Z,22.02
2016-04-15T01:21:49.058Z,21.82
2016-04-15T01:22:49.060Z,22.02
2016-04-15T01:23:49.063Z,21.92
2016-04-15T01:24:49.066Z,22.02
2016-04-15T01:25:49.068Z,22.02
2016-04-15T01:26:49.103Z,22.02
2016-04-15T01:27:49.089Z,22.11
2016-04-15T01:28:49.092Z,22.02
2016-04-15T01:29:49.298Z,22.02
2016-04-15T01:30:49.113Z,22.2
2016-04-15T01:31:49.116Z,21.92
2016-04-15T01:32:49.118Z,21.92
2016-04-15T01:33:49.121Z,21.92
2016-04-15T01:34:49.140Z,22.77
2016-04-15T01:35:49.143Z,22.29
2016-04-15T01:36:49.145Z,21.92
2016-04-15T01:37:49.148Z,22.11
2016-04-15T01:38:49.150Z,21.91
2016-04-15T01:39:49.168Z,22.11
2016-04-15T01:40:49.171Z,22.29
2016-04-15T01:41:49.173Z,22.3
2016-04-15T01:42:49.177Z,22.3
2016-04-15T01:43:49.195Z,22.3
2016-04-15T01:44:49.260Z,22.29
2016-04-15T01:45:49.201Z,22.2
2016-04-15T01:46:49.218Z,22.3
2016-04-15T01:47:49.221Z,22.19
2016-04-15T01:48:49.208Z,22.3
2016-04-15T01:49:49.226Z,22.19
2016-04-15T01:50:49.229Z,22.1
2016-04-15T01:51:49.231Z,22.1
2016-04-15T01:52:49.234Z,22.19
2016-04-15T01:53:49.252Z,22.1
2016-04-15T01:54:49.255Z,22.1
2016-04-15T01:55:49.258Z,22.49
2016-04-15T01:56:49.260Z,22.19
2016-04-15T01:57:49.264Z,22.58
2016-04-15T01:58:49.282Z,22.97
2016-04-15T01:59:49.363Z,22.77
2016-04-15T02:00:49.288Z,22.97
2016-04-15T02:01:49.291Z,22.67
2016-04-15T02:02:49.308Z,22.77
2016-04-15T02:03:49.296Z,23.07
2016-04-15T02:04:49.298Z,22.58
2016-04-15T02:05:49.316Z,22.58
2016-04-15T02:06:49.319Z,22.87
2016-04-15T02:07:49.322Z,22.77
2016-04-15T02:08:49.325Z,22.49
2016-04-15T02:09:49.343Z,22.87
2016-04-15T02:10:49.346Z,22.58
2016-04-15T02:11:49.349Z,22.67
2016-04-15T02:12:49.351Z,22.58
2016-04-15T02:13:49.370Z,22.77
2016-04-15T02:14:49.403Z,22.87
2016-04-15T02:15:49.375Z,22.67
2016-04-15T02:16:49.393Z,22.58
2016-04-15T02:17:49.395Z,22.67
2016-04-15T02:18:49.398Z,22.59
2016-04-15T02:19:49.400Z,22.49
2016-04-15T02:20:49.403Z,22.49
2016-04-15T02:21:49.406Z,22.2
2016-04-15T02:22:49.408Z,22.59
2016-04-15T02:23:49.428Z,22.49
2016-04-15T02:24:49.430Z,22.5
2016-04-15T02:25:49.433Z,22.59
2016-04-15T02:26:49.295Z,22.49
2016-04-15T02:27:49.453Z,22.1
2016-04-15T02:28:49.456Z,22.19
2016-04-15T02:29:49.475Z,22.11
2016-04-15T02:30:49.461Z,22.11
2016-04-15T02:31:49.464Z,22.1
2016-04-15T02:32:49.467Z,22.5
2016-04-15T02:33:49.485Z,22.4
2016-04-15T02:34:49.488Z,22.3
2016-04-15T02:35:49.506Z,22.2
2016-04-15T02:36:49.493Z,22.2
2016-04-15T02:37:49.496Z,22.3
2016-04-15T02:38:49.499Z,22.3
2016-04-15T02:39:49.518Z,22.3
2016-04-15T02:40:49.520Z,22.4
2016-04-15T02:41:49.538Z,22.3
2016-04-15T02:42:49.541Z,22.3
2016-04-15T02:43:49.543Z,22.2
2016-04-15T02:44:49.546Z,22.4
2016-04-15T02:45:49.548Z,22.4
2016-04-15T02:46:49.551Z,22.4
2016-04-15T02:47:49.570Z,22.4
2016-04-15T02:48:49.573Z,22.11
2016-04-15T02:49:49.576Z,22.11
2016-04-15T02:50:49.595Z,22.4
2016-04-15T02:51:49.581Z,22.59
2016-04-15T02:52:49.584Z,22.88
2016-04-15T02:53:49.603Z,22.59
2016-04-15T02:54:49.605Z,22.2
2016-04-15T02:55:49.608Z,22.5
2016-04-15T02:56:49.610Z,22.69
2016-04-15T02:57:49.628Z,22.98
2016-04-15T02:58:49.631Z,22.88
2016-04-15T02:59:49.649Z,22.59
2016-04-15T03:00:49.652Z,22.88
2016-04-15T03:01:49.639Z,22.88
2016-04-15T03:02:49.673Z,22.88
2016-04-15T03:03:49.660Z,22.69
2016-04-15T03:04:49.663Z,22.69
2016-04-15T03:05:49.666Z,22.67
2016-04-15T03:06:49.683Z,22.88
2016-04-15T03:07:49.686Z,22.98
2016-04-15T03:08:49.689Z,22.78
2016-04-15T03:09:49.707Z,22.69
2016-04-15T03:10:49.694Z,22.69
2016-04-15T03:11:49.696Z,22.77
2016-04-15T03:12:49.715Z,22.88
2016-04-15T03:13:49.734Z,22.69
2016-04-15T03:14:49.720Z,22.98
2016-04-15T03:15:49.739Z,23.07
2016-04-15T03:16:49.726Z,22.98
2016-04-15T03:17:49.744Z,22.59
2016-04-15T03:18:49.747Z,22.88
2016-04-15T03:19:49.765Z,22.88
2016-04-15T03:20:49.784Z,23.08
2016-04-15T03:21:49.771Z,22.98
2016-04-15T03:22:49.773Z,22.97
2016-04-15T03:23:49.776Z,22.88
2016-04-15T03:24:49.779Z,22.97
2016-04-15T03:25:49.797Z,22.98
2016-04-15T03:26:49.800Z,22.88
2016-04-15T03:27:49.802Z,23.07
2016-04-15T03:28:49.805Z,22.98
2016-04-15T03:29:49.824Z,22.77
2016-04-15T03:30:49.827Z,22.88
2016-04-15T03:31:49.830Z,22.97
2016-04-15T03:32:49.832Z,22.97
2016-04-15T03:33:49.835Z,22.88
2016-04-15T03:34:49.853Z,22.87
2016-04-15T03:35:49.840Z,22.88
2016-04-15T03:36:49.858Z,22.88
2016-04-15T03:37:49.860Z,22.88
2016-04-15T03:38:49.863Z,22.88
2016-04-15T03:39:49.710Z,22.78
2016-04-15T03:40:49.885Z,22.78
2016-04-15T03:41:49.887Z,23.07
2016-04-15T03:42:49.905Z,22.88
2016-04-15T03:43:49.908Z,22.98
2016-04-15T03:44:49.910Z,22.97
2016-04-15T03:45:49.898Z,22.87
2016-04-15T03:46:49.916Z,23.36
2016-04-15T03:47:49.919Z,22.88
2016-04-15T03:48:49.921Z,22.88
2016-04-15T03:49:49.924Z,23.35
2016-04-15T03:50:49.942Z,22.88
2016-04-15T03:51:49.945Z,22.88
2016-04-15T03:52:49.964Z,22.98
2016-04-15T03:53:49.950Z,23.08
2016-04-15T03:54:49.969Z,23.07
2016-04-15T03:55:49.972Z,22.88
2016-04-15T03:56:49.974Z,22.98
2016-04-15T03:57:49.977Z,22.97
2016-04-15T03:58:49.979Z,22.98
2016-04-15T03:59:49.997Z,23.07
2016-04-15T04:00:50.000Z,23.35
2016-04-15T04:01:50.003Z,23.36
2016-04-15T04:02:50.006Z,23.36
2016-04-15T04:03:50.008Z,23.08
2016-04-15T04:04:50.011Z,22.98
2016-04-15T04:05:50.030Z,22.88
2016-04-15T04:06:50.032Z,23.27
2016-04-15T04:07:50.035Z,23.17
2016-04-15T04:08:50.038Z,23.08
2016-04-15T04:09:50.040Z,23.27
2016-04-15T04:10:50.043Z,23.45
2016-04-15T04:11:50.062Z,23.46
2016-04-15T04:12:50.065Z,23.16
2016-04-15T04:13:50.067Z,23.07
2016-04-15T04:14:50.085Z,23.27
2016-04-15T04:15:50.088Z,23.46
2016-04-15T04:16:50.090Z,22.97
2016-04-15T04:17:50.093Z,23.65
2016-04-15T04:18:50.112Z,23.08
2016-04-15T04:19:50.098Z,23.07
2016-04-15T04:20:50.117Z,23.36
2016-04-15T04:21:50.120Z,23.17
2016-04-15T04:22:50.122Z,23.17
2016-04-15T04:23:50.140Z,22.98
2016-04-15T04:24:50.174Z,23.27
2016-04-15T04:25:50.145Z,23.36
2016-04-15T04:26:50.148Z,23.08
2016-04-15T04:27:50.151Z,23.17
2016-04-15T04:28:50.154Z,23.36
2016-04-15T04:29:50.220Z,23.25
2016-04-15T04:30:50.175Z,23.27
2016-04-15T04:31:50.178Z,23.07
2016-04-15T04:32:50.197Z,23.08
2016-04-15T04:33:50.199Z,23.25
2016-04-15T04:34:50.202Z,23.25
2016-04-15T04:35:50.204Z,23.07
2016-04-15T04:36:50.207Z,23.27
2016-04-15T04:37:50.210Z,23.17
2016-04-15T04:38:50.227Z,23.17
2016-04-15T04:39:50.230Z,23.25
2016-04-15T04:40:50.232Z,23.25
2016-04-15T04:41:50.235Z,22.97
2016-04-15T04:42:50.238Z,23.17
2016-04-15T04:43:50.241Z,23.36
2016-04-15T04:44:50.260Z,22.88
2016-04-15T04:45:50.262Z,23.08
2016-04-15T04:46:50.265Z,23.08
2016-04-15T04:47:50.284Z,22.88
2016-04-15T04:48:50.270Z,22.98
2016-04-15T04:49:50.289Z,22.88
2016-04-15T04:50:50.291Z,22.88
2016-04-15T04:51:50.310Z,23.17
2016-04-15T04:52:50.353Z,22.98
2016-04-15T04:53:50.313Z,22.98
2016-04-15T04:54:50.337Z,22.98
2016-04-15T04:55:50.339Z,23.08
2016-04-15T04:56:50.357Z,22.98
2016-04-15T04:57:50.344Z,23.17
2016-04-15T04:58:50.347Z,22.98
2016-04-15T04:59:50.334Z,22.88
2016-04-15T05:00:50.306Z,23.08
2016-04-15T05:01:50.370Z,22.98
2016-04-15T05:02:50.358Z,22.88
2016-04-15T05:03:50.361Z,23.27
2016-04-15T05:04:50.378Z,23.27
2016-04-15T05:05:50.381Z,23.46
2016-04-15T05:06:50.383Z,23.36
2016-04-15T05:07:50.386Z,23.36
2016-04-15T05:08:50.405Z,23.36
2016-04-15T05:09:50.391Z,23.17
2016-04-15T05:10:50.411Z,22.88
2016-04-15T05:11:50.413Z,23.27
2016-04-15T05:12:50.416Z,23.36
2016-04-15T05:13:50.419Z,23.27
2016-04-15T05:14:50.437Z,23.36
2016-04-15T05:15:50.440Z,23.36
2016-04-15T05:16:50.458Z,23.08
2016-04-15T05:17:50.445Z,23.27
2016-04-15T05:18:50.463Z,23.08
2016-04-15T05:19:50.465Z,23.27
2016-04-15T05:20:50.468Z,23.46
2016-04-15T05:21:50.487Z,23.08
2016-04-15T05:22:50.473Z,23.08
2016-04-15T05:23:50.492Z,23.36
2016-04-15T05:24:50.495Z,23.17
2016-04-15T05:25:50.497Z,23.46
2016-04-15T05:26:50.500Z,23.46
2016-04-15T05:27:50.519Z,23.17
2016-04-15T05:28:50.506Z,23.27
2016-04-15T05:29:50.525Z,23.17
2016-04-15T05:30:50.558Z,23.27
2016-04-15T05:31:50.530Z,23.17
2016-04-15T05:32:50.547Z,23.46
2016-04-15T05:33:50.550Z,23.17
2016-04-15T05:34:50.553Z,23.08
2016-04-15T05:35:50.571Z,23.17
2016-04-15T05:36:50.559Z,23.17
2016-04-15T05:37:50.561Z,22.98
2016-04-15T05:38:50.580Z,23.36
2016-04-15T05:39:50.583Z,23.17
2016-04-15T05:40:50.585Z,23.27
2016-04-15T05:41:50.588Z,23.17
2016-04-15T05:42:50.590Z,23.08
2016-04-15T05:43:50.624Z,23.17
2016-04-15T05:44:50.611Z,23.27
2016-04-15T05:45:50.926Z,23.36
2016-04-15T05:46:50.632Z,23.08
2016-04-15T05:47:50.635Z,23.27
2016-04-15T05:48:50.637Z,23.36
2016-04-15T05:49:50.640Z,23.08
2016-04-15T05:50:50.643Z,23.08
2016-04-15T05:51:50.661Z,22.98
2016-04-15T05:52:50.665Z,23.08
2016-04-15T05:53:50.667Z,23.08
2016-04-15T05:54:50.685Z,22.98
2016-04-15T05:55:50.673Z,23.08
2016-04-15T05:56:50.675Z,22.88
2016-04-15T05:57:50.693Z,22.98
2016-04-15T05:58:50.695Z,22.98
2016-04-15T05:59:50.698Z,23.08
2016-04-15T06:00:50.873Z,23.36
2016-04-15T06:01:50.703Z,23.17
2016-04-15T06:02:50.722Z,23.08
2016-04-15T06:03:50.724Z,23.36
2016-04-15T06:04:50.727Z,23.27
2016-04-15T06:05:50.730Z,23.08
2016-04-15T06:06:50.748Z,22.88
2016-04-15T06:07:50.751Z,23.08
2016-04-15T06:08:50.769Z,22.88
2016-04-15T06:09:51.116Z,23.08
2016-04-15T06:10:50.760Z,23.08
2016-04-15T06:11:50.778Z,22.98
2016-04-15T06:12:50.780Z,23.36
2016-04-15T06:13:50.799Z,23.08
2016-04-15T06:14:50.785Z,23.27
2016-04-15T06:15:51.116Z,23.65
2016-04-15T06:16:50.791Z,23.27
2016-04-15T06:17:50.809Z,22.98
2016-04-15T06:18:50.812Z,23.36
2016-04-15T06:19:50.815Z,23.27
2016-04-15T06:20:50.818Z,23.36
2016-04-15T06:21:50.841Z,23.17
2016-04-15T06:22:50.830Z,23.08
2016-04-15T06:23:50.848Z,23.08
2016-04-15T06:24:50.851Z,23.36
2016-04-15T06:25:50.869Z,23.36
2016-04-15T06:26:50.872Z,23.27
2016-04-15T06:27:50.863Z,23.08
2016-04-15T06:28:50.882Z,22.98
2016-04-15T06:29:50.868Z,23.08
2016-04-15T06:30:50.824Z,23.08
2016-04-15T06:31:50.890Z,22.98
2016-04-15T06:32:50.924Z,23.27
2016-04-15T06:33:50.911Z,22.98
2016-04-15T06:34:50.930Z,22.98
2016-04-15T06:35:50.916Z,23.17
2016-04-15T06:36:50.935Z,23.17
2016-04-15T06:37:50.938Z,23.08
2016-04-15T06:38:50.924Z,23.08
2016-04-15T06:39:50.943Z,23.08
2016-04-15T06:40:50.945Z,22.98
2016-04-15T06:41:50.948Z,23.36
2016-04-15T06:42:50.967Z,23.17
2016-04-15T06:43:50.969Z,23.17
2016-04-15T06:44:50.956Z,22.98
2016-04-15T06:45:50.989Z,23.17
2016-04-15T06:46:50.977Z,23.08
2016-04-15T06:47:50.995Z,23.08
2016-04-15T06:48:51.013Z,23.08
2016-04-15T06:49:51.001Z,22.98
2016-04-15T06:50:51.003Z,22.98
2016-04-15T06:51:51.006Z,22.98
2016-04-15T06:52:51.009Z,22.98
2016-04-15T06:53:51.011Z,23.17
2016-04-15T06:54:51.155Z,23.17
2016-04-15T06:55:51.032Z,23.08
2016-04-15T06:56:51.035Z,23.17
2016-04-15T06:57:51.038Z,23.08
2016-04-15T06:58:51.056Z,23.08
2016-04-15T06:59:51.059Z,23.08
2016-04-15T07:00:51.078Z,23.08
2016-04-15T07:01:51.064Z,23.27
2016-04-15T07:02:51.067Z,23.27
2016-04-15T07:03:51.085Z,23.27
2016-04-15T07:04:51.088Z,23.08
2016-04-15T07:05:51.091Z,23.17
2016-04-15T07:06:51.093Z,23.38
2016-04-15T07:07:51.112Z,23.08
2016-04-15T07:08:51.115Z,23.08
2016-04-15T07:09:51.117Z,23.08
2016-04-15T07:10:51.120Z,22.98
2016-04-15T07:11:51.122Z,23.46
2016-04-15T07:12:51.140Z,23.17
2016-04-15T07:13:51.143Z,23.36
2016-04-15T07:14:51.146Z,23.27
2016-04-15T07:15:51.149Z,23.36
2016-04-15T07:16:51.167Z,23.56
2016-04-15T07:17:51.170Z,23.46
2016-04-15T07:18:51.173Z,23.75
2016-04-15T07:19:51.176Z,23.36
2016-04-15T07:20:51.178Z,23.56
2016-04-15T07:21:51.060Z,23.27
2016-04-15T07:22:51.188Z,23.56
2016-04-15T07:23:51.207Z,23.75
2016-04-15T07:24:51.209Z,23.56
2016-04-15T07:25:51.212Z,23.75
2016-04-15T07:26:51.214Z,23.65
2016-04-15T07:27:51.221Z,23.85
2016-04-15T07:28:51.241Z,23.75
2016-04-15T07:29:51.243Z,23.65
2016-04-15T07:30:51.246Z,23.65
2016-04-15T07:31:51.249Z,23.85
2016-04-15T07:32:51.251Z,23.27
2016-04-15T07:33:51.270Z,23.75
2016-04-15T07:34:51.256Z,23.08
2016-04-15T07:35:51.275Z,22.99
2016-04-15T07:36:51.278Z,23.18
2016-04-15T07:37:51.280Z,22.89
2016-04-15T07:38:51.298Z,22.6
2016-04-15T07:39:51.286Z,22.23
2016-04-15T07:40:51.303Z,21.94
2016-04-15T07:41:51.307Z,22.03
2016-04-15T07:42:51.309Z,21.75
2016-04-15T07:43:51.312Z,21.75
2016-04-15T07:44:51.331Z,21.47
2016-04-15T07:45:51.333Z,20.79
2016-04-15T07:46:51.336Z,20.89
2016-04-15T07:47:51.354Z,20.89
2016-04-15T07:48:51.357Z,20.8
2016-04-15T07:49:51.360Z,20.8
2016-04-15T07:50:51.362Z,20.62
2016-04-15T07:51:51.365Z,20.23
2016-04-15T07:52:51.382Z,20.42
2016-04-15T07:53:51.385Z,20.03
2016-04-15T07:54:51.388Z,19.85
2016-04-15T07:55:51.390Z,19.46
2016-04-15T07:56:51.394Z,19.56
2016-04-15T07:57:51.412Z,19.85
2016-04-15T07:58:51.415Z,19.56
2016-04-15T07:59:51.417Z,19.17
2016-04-15T08:00:51.420Z,19.07
2016-04-15T08:01:51.423Z,19.18
2016-04-15T08:02:51.440Z,19.38
2016-04-15T08:03:51.428Z,19.28
2016-04-15T08:04:51.446Z,19.09
2016-04-15T08:05:51.449Z,19.47
2016-04-15T08:06:51.468Z,19.09
2016-04-15T08:07:51.471Z,18.7
2016-04-15T08:08:51.473Z,18.7
2016-04-15T08:09:51.492Z,18.7
2016-04-15T08:10:54.681Z,18.89
2016-04-15T08:11:51.497Z,18.89
2016-04-15T08:12:51.500Z,18.89
2016-04-15T08:13:51.502Z,18.89
2016-04-15T08:14:51.505Z,18.8
2016-04-15T08:15:51.522Z,18.51
2016-04-15T08:16:51.526Z,18.32
2016-04-15T08:17:51.528Z,18.71
2016-04-15T08:18:51.531Z,18.51
2016-04-15T08:19:51.550Z,18.61
2016-04-15T08:20:51.552Z,18.61
2016-04-15T08:21:51.561Z,18.22
2016-04-15T08:22:51.564Z,18.22
2016-04-15T08:23:51.581Z,18.13
2016-04-15T08:24:51.584Z,18.41
2016-04-15T08:25:51.586Z,18.51
2016-04-15T08:26:51.605Z,18.32
2016-04-15T08:27:51.592Z,18.04
2016-04-15T08:28:51.610Z,18.13
2016-04-15T08:29:51.614Z,17.84
2016-04-15T08:30:51.616Z,18.33
2016-04-15T08:31:51.655Z,18.23
2016-04-15T08:32:51.685Z,17.94
2016-04-15T08:33:51.745Z,18.33
2016-04-15T08:34:51.790Z,18.23
2016-04-15T08:35:51.836Z,17.94
2016-04-15T08:36:51.878Z,17.94
2016-04-15T08:37:51.896Z,17.84
2016-04-15T08:38:51.914Z,17.66
2016-04-15T08:39:51.963Z,17.76
2016-04-15T08:40:51.966Z,17.76
2016-04-15T08:41:51.983Z,18.05
2016-04-15T08:42:51.991Z,17.84
2016-04-15T08:43:52.014Z,18.13
2016-04-15T08:44:52.023Z,18.33
2016-04-15T08:45:52.047Z,18.04
2016-04-15T08:46:52.070Z,18.23
2016-04-15T08:47:52.059Z,18.13
2016-04-15T08:48:52.063Z,18.03
2016-04-15T08:49:52.318Z,18.23
2016-04-15T08:50:52.088Z,18.13
2016-04-15T08:51:52.093Z,18.04
2016-04-15T08:52:52.097Z,18.13
2016-04-15T08:53:52.115Z,18.23
2016-04-15T08:54:52.135Z,18.33
2016-04-15T08:55:52.138Z,18.23
2016-04-15T08:56:52.141Z,17.85
2016-04-15T08:57:52.144Z,17.66
2016-04-15T08:58:52.163Z,17.95
2016-04-15T08:59:52.151Z,18.05
2016-04-15T09:00:52.184Z,17.84
2016-04-15T09:01:52.172Z,18.15
2016-04-15T09:02:52.190Z,18.23
2016-04-15T09:03:52.178Z,18.61
2016-04-15T09:04:52.196Z,18.61
2016-04-15T09:05:52.199Z,18.8
2016-04-15T09:06:52.201Z,18.8
2016-04-15T09:07:52.220Z,18.71
2016-04-15T09:08:52.222Z,18.9
2016-04-15T09:09:52.225Z,18.71
2016-04-15T09:10:52.243Z,19.38
2016-04-15T09:11:52.245Z,19.29
2016-04-15T09:12:52.248Z,19.48
2016-04-15T09:13:52.250Z,19
2016-04-15T09:14:52.269Z,19.86
2016-04-15T09:15:52.272Z,19.76
2016-04-15T09:16:52.291Z,19.86
2016-04-15T09:17:52.294Z,19.87
2016-04-15T09:18:52.296Z,19.58
2016-04-15T09:19:52.299Z,19.87
2016-04-15T09:20:52.301Z,19.48
2016-04-15T09:21:52.335Z,19.96
2016-04-15T09:22:52.322Z,19.68
2016-04-15T09:23:52.325Z,19.58
2016-04-15T09:24:52.327Z,19
2016-04-15T09:25:52.347Z,19.96
2016-04-15T09:26:52.349Z,19.58
2016-04-15T09:27:52.368Z,19.96
2016-04-15T09:28:52.370Z,19.96
2016-04-15T09:29:52.388Z,19.96
2016-04-15T09:30:52.391Z,20.16
2016-04-15T09:31:52.378Z,19.87
2016-04-15T09:32:52.381Z,20.06
2016-04-15T09:33:52.398Z,20.65
2016-04-15T09:34:52.417Z,20.45
2016-04-15T09:35:52.420Z,20.36
2016-04-15T09:36:52.423Z,20.45
2016-04-15T09:37:52.441Z,20.06
2016-04-15T09:38:52.443Z,20.45
2016-04-15T09:39:52.446Z,20.36
2016-04-15T09:40:52.448Z,20.45
2016-04-15T09:41:52.451Z,20.65
2016-04-15T09:42:52.470Z,20.45
2016-04-15T09:43:52.472Z,20.36
2016-04-15T09:44:52.475Z,20.55
2016-04-15T09:45:52.493Z,20.84
2016-04-15T09:46:52.496Z,20.65
2016-04-15T09:47:52.499Z,20.55
2016-04-15T09:48:52.502Z,21.13
2016-04-15T09:49:52.520Z,21.03
2016-04-15T09:50:52.522Z,20.65
2016-04-15T09:51:52.541Z,20.64
2016-04-15T09:52:52.527Z,20.73
2016-04-15T09:53:52.546Z,20.93
2016-04-15T09:54:52.408Z,21.12
2016-04-15T09:55:52.552Z,20.64
2016-04-15T09:56:52.555Z,20.74
2016-04-15T09:57:52.574Z,20.65
2016-04-15T09:58:52.607Z,20.73
2016-04-15T09:59:52.594Z,20.54
2016-04-15T10:00:52.596Z,20.83
2016-04-15T10:01:52.615Z,20.84
2016-04-15T10:02:52.601Z,20.73
2016-04-15T10:03:52.620Z,20.65
2016-04-15T10:04:52.623Z,20.54
2016-04-15T10:05:52.625Z,21.02
2016-04-15T10:06:52.643Z,21.02
2016-04-15T10:07:52.631Z,21.02
2016-04-15T10:08:52.493Z,20.83
2016-04-15T10:09:52.652Z,20.93
2016-04-15T10:10:52.654Z,21.02
2016-04-15T10:11:52.673Z,21.12
2016-04-15T10:12:52.675Z,20.83
2016-04-15T10:13:52.694Z,20.93
2016-04-15T10:14:52.681Z,21.51
2016-04-15T10:15:52.699Z,20.83
2016-04-15T10:16:52.702Z,21.12
2016-04-15T10:17:52.704Z,21.02
2016-04-15T10:18:52.722Z,21.02
2016-04-15T10:19:52.725Z,20.93
2016-04-15T10:20:52.728Z,20.93
2016-04-15T10:21:52.747Z,20.83
2016-04-15T10:22:52.749Z,21.02
2016-04-15T10:23:52.752Z,21.22
2016-04-15T10:24:52.754Z,21.02
2016-04-15T10:25:52.757Z,21.12
2016-04-15T10:26:52.776Z,21.03
2016-04-15T10:27:52.779Z,21.02
2016-04-15T10:28:52.782Z,20.93
2016-04-15T10:29:52.831Z,20.74
2016-04-15T10:30:52.802Z,21.23
2016-04-15T10:31:52.946Z,20.74
2016-04-15T10:32:52.823Z,20.74
2016-04-15T10:33:52.810Z,20.26
2016-04-15T10:34:52.828Z,20.55
2016-04-15T10:35:52.831Z,20.27
2016-04-15T10:36:52.849Z,20.55
2016-04-15T10:37:52.851Z,20.65
2016-04-15T10:38:52.855Z,20.84
2016-04-15T10:39:52.857Z,20.84
2016-04-15T10:40:52.860Z,20.74
2016-04-15T10:41:52.878Z,20.74
2016-04-15T10:42:52.897Z,20.74
2016-04-15T10:43:52.884Z,20.84
2016-04-15T10:44:52.902Z,21.03
2016-04-15T10:45:52.920Z,20.74
2016-04-15T10:46:52.766Z,20.36
2016-04-15T10:47:52.910Z,20.07
2016-04-15T10:48:52.928Z,20.17
2016-04-15T10:49:52.930Z,20.17
2016-04-15T10:50:52.934Z,20.17
2016-04-15T10:51:52.952Z,19.98
2016-04-15T10:52:52.955Z,19.49
2016-04-15T10:53:52.973Z,19.6
2016-04-15T10:54:52.976Z,20.18
2016-04-15T10:55:52.979Z,20.17
2016-04-15T10:56:52.982Z,20.07
2016-04-15T10:57:52.985Z,19.88
2016-04-15T10:58:53.003Z,19.98
2016-04-15T10:59:53.005Z,20.07
2016-04-15T11:00:53.008Z,20.18
2016-04-15T11:01:53.074Z,19.78
2016-04-15T11:02:53.029Z,19.98
2016-04-15T11:03:53.032Z,19.98
2016-04-15T11:04:53.034Z,19.88
2016-04-15T11:05:53.052Z,19.98
2016-04-15T11:06:53.054Z,20.17
2016-04-15T11:07:53.057Z,19.49
2016-04-15T11:08:53.076Z,19.88
2016-04-15T11:09:53.079Z,20.07
2016-04-15T11:10:53.082Z,19.68
2016-04-15T11:11:53.084Z,19.88
2016-04-15T11:12:53.103Z,19.68
2016-04-15T11:13:53.106Z,19.98
2016-04-15T11:14:53.108Z,19.7
2016-04-15T11:15:53.126Z,19.88
2016-04-15T11:16:53.144Z,19.99
2016-04-15T11:17:53.131Z,19.6
2016-04-15T11:18:53.133Z,19.79
2016-04-15T11:19:53.152Z,19.88
2016-04-15T11:20:53.155Z,20.18
2016-04-15T11:21:53.158Z,19.89
2016-04-15T11:22:53.177Z,19.7
2016-04-15T11:23:53.179Z,19.98
2016-04-15T11:24:53.197Z,20.37
2016-04-15T11:25:53.184Z,20.07
2016-04-15T11:26:53.218Z,20.65
2016-04-15T11:27:53.205Z,20.45
2016-04-15T11:28:53.208Z,21.03
2016-04-15T11:29:53.227Z,20.74
2016-04-15T11:30:53.230Z,20.84
2016-04-15T11:31:53.372Z,20.65
2016-04-15T11:32:53.250Z,20.65
2016-04-15T11:33:53.252Z,21.03
2016-04-15T11:34:53.255Z,20.94
2016-04-15T11:35:53.274Z,20.94
2016-04-15T11:36:53.276Z,21.13
2016-04-15T11:37:53.295Z,20.94
2016-04-15T11:38:53.297Z,21.03
2016-04-15T11:39:53.301Z,20.84
2016-04-15T11:40:53.303Z,20.94
2016-04-15T11:41:53.306Z,21.61
2016-04-15T11:42:53.323Z,21.31
2016-04-15T11:43:53.326Z,21.31
2016-04-15T11:44:53.329Z,21.41
2016-04-15T11:45:53.347Z,21.7
2016-04-15T11:46:53.366Z,21.22
2016-04-15T11:47:53.353Z,21.51
2016-04-15T11:48:53.355Z,21.7
2016-04-15T11:49:53.374Z,21.51
2016-04-15T11:50:53.377Z,21.02
2016-04-15T11:51:53.379Z,20.94
2016-04-15T11:52:53.413Z,20.93
2016-04-15T11:53:53.400Z,21.13
2016-04-15T11:54:53.418Z,21.13
2016-04-15T11:55:53.421Z,20.93
2016-04-15T11:56:53.424Z,20.93
2016-04-15T11:57:53.427Z,20.93
2016-04-15T11:58:53.430Z,21.03
2016-04-15T11:59:53.432Z,21.13
2016-04-15T12:00:53.450Z,21.03
2016-04-15T12:01:53.484Z,20.83
2016-04-15T12:02:53.455Z,20.93
2016-04-15T12:03:53.473Z,21.31
2016-04-15T12:04:53.476Z,21.31
2016-04-15T12:05:53.495Z,21.12
2016-04-15T12:06:53.498Z,21.02
2016-04-15T12:07:53.500Z,20.93
2016-04-15T12:08:53.566Z,21.02
2016-04-15T12:09:53.508Z,21.22
2016-04-15T12:10:53.526Z,20.93
2016-04-15T12:11:53.529Z,21.02
2016-04-15T12:12:53.547Z,20.83
2016-04-15T12:13:53.534Z,21.12
2016-04-15T12:14:53.552Z,20.93
2016-04-15T12:15:53.555Z,21.12
2016-04-15T12:16:53.557Z,20.93
2016-04-15T12:17:53.577Z,21.03
2016-04-15T12:18:53.579Z,20.74
2016-04-15T12:19:53.582Z,21.23
2016-04-15T12:20:53.600Z,20.94
2016-04-15T12:21:53.602Z,21.03
2016-04-15T12:22:53.605Z,20.74
2016-04-15T12:23:53.607Z,20.84
2016-04-15T12:24:53.641Z,20.45
2016-04-15T12:25:53.623Z,21.03
2016-04-15T12:26:53.484Z,21.03
2016-04-15T12:27:53.644Z,20.84
2016-04-15T12:28:53.662Z,20.93
2016-04-15T12:29:53.665Z,20.74
2016-04-15T12:30:53.668Z,21.13
2016-04-15T12:31:53.670Z,21.33
2016-04-15T12:32:53.673Z,21.03
2016-04-15T12:33:53.691Z,20.83
2016-04-15T12:34:53.694Z,20.74
2016-04-15T12:35:53.712Z,20.74
2016-04-15T12:36:53.700Z,20.74
2016-04-15T12:37:53.718Z,20.84
2016-04-15T12:38:53.736Z,20.74
2016-04-15T12:39:53.723Z,20.65
2016-04-15T12:40:53.741Z,20.84
2016-04-15T12:41:53.744Z,20.84
2016-04-15T12:42:53.747Z,20.84
2016-04-15T12:43:53.749Z,20.65
2016-04-15T12:44:53.768Z,20.36
2016-04-15T12:45:53.770Z,20.45
2016-04-15T12:46:53.789Z,20.36
2016-04-15T12:47:53.776Z,20.45
2016-04-15T12:48:53.794Z,20.36
2016-04-15T12:49:53.797Z,20.36
2016-04-15T12:50:53.815Z,20.45
2016-04-15T12:51:53.818Z,20.55
2016-04-15T12:52:53.820Z,20.84
2016-04-15T12:53:53.823Z,20.74
2016-04-15T12:54:53.841Z,20.55